Time;durP1;ratioP1;P1;durP2;ratioP2;P2;SDS_P1;SDS_P2;PMS_P1;PMS_P2;Temp;Humidity;BMP_temperature;BMP_pressure;BME280_temperature;BME280_humidity;BME280_pressure;Samples;Min_cycle;Max_cycle;Signal;HPM_P1;HPM_P2
2022/01/12 00:00:53;;;;;;;11.00;8.68;;;;;;;29.66;66.10;101311.44;5088837;27;65711;-37
2022/01/12 00:03:24;;;;;;;10.93;8.60;;;;;;;29.66;65.96;101317.66;5081258;27;70436;-38
2022/01/12 00:05:55;;;;;;;12.50;8.40;;;;;;;29.63;65.98;101323.47;5080376;27;65994;-39
2022/01/12 00:08:26;;;;;;;14.48;9.05;;;;;;;29.66;65.96;101325.78;5091547;27;68846;-38
2022/01/12 00:10:57;;;;;;;13.35;8.60;;;;;;;29.67;65.37;101332.88;5085412;27;65891;-38
2022/01/12 00:13:27;;;;;;;25.35;10.20;;;;;;;29.64;64.79;101324.31;5089227;27;71386;-37
2022/01/12 00:15:58;;;;;;;34.35;11.07;;;;;;;29.66;64.25;101333.88;5092693;27;66512;-36
2022/01/12 00:18:31;;;;;;;34.17;12.07;;;;;;;29.38;63.45;101290.69;5086549;27;69398;-38
2022/01/12 00:21:02;;;;;;;41.15;12.75;;;;;;;29.66;63.48;101338.47;5085202;27;66052;-38
2022/01/12 00:23:33;;;;;;;37.50;12.88;;;;;;;29.64;63.11;101354.03;5083623;27;70076;-38
2022/01/12 00:26:26;;;;;;;26.17;12.18;;;;;;;29.64;62.51;101357.56;5091092;27;66049;-37
2022/01/12 00:34:40;;;;;;;41.25;11.98;;;;;;;29.59;57.64;101365.44;5088375;27;70362;-37
2022/01/12 00:37:12;;;;;;;36.15;12.15;;;;;;;29.45;55.35;101364.53;5100385;27;66166;-38
2022/01/12 00:39:45;;;;;;;37.55;11.57;;;;;;;29.34;55.79;101374.03;5096576;27;70531;-36
2022/01/12 00:42:21;;;;;;;23.42;9.30;;;;;;;29.25;56.52;101375.19;5083328;27;66229;-37
2022/01/12 00:44:53;;;;;;;16.40;9.50;;;;;;;29.26;57.21;101384.16;5068751;27;69083;-39
2022/01/12 00:47:24;;;;;;;;;;;;;;;28.98;55.69;101394.94;5088635;27;66302;-36
2022/01/12 00:49:55;;;;;;;15.48;8.38;;;;;;;29.28;57.48;101401.84;5093584;27;70333;-37
2022/01/12 00:52:26;;;;;;;14.93;8.35;;;;;;;29.17;57.43;101378.09;5088294;27;66255;-36
2022/01/12 00:55:06;;;;;;;8.57;7.68;;;;;;;29.36;57.44;101409.81;5087959;27;69650;-36
2022/01/12 00:57:38;;;;;;;17.20;8.38;;;;;;;29.38;57.25;101415.00;5094564;27;65903;-36
2022/01/12 01:00:23;;;;;;;14.85;8.38;;;;;;;29.43;57.62;101425.22;5081936;27;69791;-36
2022/01/12 01:02:55;;;;;;;9.38;8.02;;;;;;;29.45;57.80;101423.13;5082997;27;66668;-37
2022/01/12 01:05:34;;;;;;;7.88;7.20;;;;;;;29.43;57.28;101419.81;5085853;27;69779;-37
2022/01/12 01:08:06;;;;;;;8.23;7.50;;;;;;;29.47;57.83;101421.09;5088739;27;66860;-36
2022/01/12 01:10:48;;;;;;;7.93;7.22;;;;;;;29.49;57.42;101425.25;5070322;27;69316;-37
2022/01/12 01:13:33;;;;;;;9.73;7.07;;;;;;;29.52;57.71;101429.44;5088237;27;65982;-37
2022/01/12 01:16:23;;;;;;;9.60;7.15;;;;;;;29.50;57.98;101418.81;5086168;27;70268;-36
2022/01/12 01:27:31;;;;;;;6.95;6.25;;;;;;;29.57;57.87;101421.56;5087895;27;70278;-37
2022/01/12 01:30:10;;;;;;;7.30;5.82;;;;;;;29.60;57.54;101429.28;5070401;27;66465;-37
2022/01/12 01:32:45;;;;;;;6.68;6.18;;;;;;;29.48;57.54;101414.66;5083659;27;70040;-36
2022/01/12 01:35:21;;;;;;;6.90;6.38;;;;;;;29.60;57.29;101434.69;5068217;27;65946;-36
2022/01/12 01:37:53;;;;;;;8.48;6.95;;;;;;;29.62;57.67;101440.75;5065421;28;69724;-36
2022/01/12 01:40:24;;;;;;;7.28;6.55;;;;;;;29.67;57.75;101442.88;5086663;27;65454;-36
2022/01/12 01:54:33;;;;;;;7.05;6.45;;;;;;;29.69;57.82;101452.44;5089732;27;70588;-37
2022/01/12 01:57:13;;;;;;;8.65;5.53;;;;;;;29.71;57.83;101449.56;5083980;27;66059;-37
2022/01/12 01:59:46;;;;;;;7.10;5.93;;;;;;;29.74;57.23;101454.56;5064448;27;69823;-36
2022/01/12 02:02:20;;;;;;;6.60;5.82;;;;;;;29.74;57.73;101450.00;5061922;27;66327;-37
2022/01/12 02:04:52;;;;;;;6.22;5.82;;;;;;;29.76;57.96;101442.53;5089791;27;69495;-37
2022/01/12 02:07:26;;;;;;;5.90;5.40;;;;;;;29.71;57.75;101430.63;5087120;27;65208;-37
2022/01/12 02:09:58;;;;;;;6.38;5.90;;;;;;;29.75;57.14;101440.84;5087276;27;70308;-36
2022/01/12 02:12:49;;;;;;;7.32;6.18;;;;;;;29.79;57.14;101442.13;5085872;27;64918;-36
2022/01/12 02:15:23;;;;;;;6.72;6.00;;;;;;;29.81;56.96;101442.75;5085978;27;70620;-36
2022/01/12 02:40:54;;;;;;;4.97;4.70;;;;;;;29.92;57.13;101445.91;5066984;28;65406;-36
2022/01/12 02:54:53;;;;;;;6.75;5.38;;;;;;;29.54;57.32;101359.81;5083687;27;69673;-37
2022/01/12 02:57:26;;;;;;;5.82;5.40;;;;;;;30.01;57.21;101439.31;5088485;27;66323;-40
2022/01/12 03:00:06;;;;;;;6.00;5.45;;;;;;;30.04;57.12;101430.81;5080606;27;69836;-37
2022/01/12 03:02:41;;;;;;;5.50;5.20;;;;;;;30.05;56.58;101440.56;5084853;27;65493;-37
2022/01/12 03:08:10;;;;;;;5.25;4.85;;;;;;;30.10;57.01;101437.28;5080286;27;66155;-38
2022/01/12 03:10:41;;;;;;;5.82;5.38;;;;;;;30.11;56.58;101428.94;5086511;27;69741;-39
2022/01/12 03:13:12;;;;;;;4.90;4.60;;;;;;;30.13;56.75;101440.41;5083421;27;66512;-37
2022/01/12 03:15:42;;;;;;;5.55;5.10;;;;;;;30.15;56.60;101432.94;5089656;27;70489;-38
2022/01/12 03:18:17;;;;;;;5.70;5.30;;;;;;;30.16;56.72;101431.88;5081584;27;66863;-37
2022/01/12 03:20:49;;;;;;;5.43;5.03;;;;;;;30.21;56.57;101428.56;5083086;27;69715;-37
2022/01/12 03:23:20;;;;;;;5.38;4.88;;;;;;;30.23;57.13;101437.38;5077906;27;65064;-37
2022/01/12 03:25:50;;;;;;;5.07;4.65;;;;;;;30.19;57.19;101420.66;5084258;27;69690;-35
2022/01/12 03:28:21;;;;;;;4.72;4.43;;;;;;;30.23;56.62;101421.97;5087200;27;66167;-36
2022/01/12 03:31:03;;;;;;;5.00;4.70;;;;;;;30.24;57.09;101412.78;5084941;27;69508;-37
2022/01/12 03:36:41;;;;;;;4.88;4.57;;;;;;;30.32;56.81;101419.06;5086486;27;70458;-36
2022/01/12 03:39:14;;;;;;;5.03;4.60;;;;;;;30.37;56.66;101430.09;5083381;27;67092;-37
2022/01/12 03:41:45;;;;;;;5.25;4.85;;;;;;;30.32;56.65;101402.84;5070088;27;69191;-37
2022/01/12 03:44:17;;;;;;;5.15;4.75;;;;;;;30.39;56.64;101409.06;5083312;27;66221;-39
2022/01/12 03:46:52;;;;;;;5.15;4.75;;;;;;;30.42;56.24;101406.81;5085763;27;70476;-37
2022/01/12 03:49:23;;;;;;;5.93;4.78;;;;;;;30.41;56.43;101393.47;5086287;27;67185;-38
2022/01/12 03:51:54;;;;;;;5.35;5.05;;;;;;;30.45;55.99;101392.88;5065991;28;69934;-37
2022/01/12 03:54:24;;;;;;;5.20;4.80;;;;;;;30.45;56.13;101387.47;5084080;27;66358;-37
2022/01/12 03:56:59;;;;;;;5.38;4.97;;;;;;;30.50;56.22;101386.81;5085932;27;69853;-37
2022/01/12 03:59:30;;;;;;;5.43;5.03;;;;;;;30.54;56.36;101389.97;5090886;27;66352;-37
2022/01/12 04:02:00;;;;;;;5.85;5.32;;;;;;;30.57;55.87;101387.69;5083604;27;69685;-36
2022/01/12 04:04:36;;;;;;;6.85;5.45;;;;;;;30.56;55.52;101369.75;5086290;27;66723;-37
2022/01/12 04:09:54;;;;;;;5.68;5.20;;;;;;;30.64;55.84;101374.97;5089637;27;66443;-37
2022/01/12 04:12:28;;;;;;;5.72;5.22;;;;;;;30.67;55.98;101374.56;5086908;27;69329;-38
2022/01/12 04:14:58;;;;;;;5.43;5.03;;;;;;;30.69;55.97;101366.22;5087118;27;66697;-37
2022/01/12 04:17:29;;;;;;;4.93;4.57;;;;;;;30.65;56.06;101356.88;5083089;27;69959;-37
2022/01/12 04:20:01;;;;;;;5.75;5.30;;;;;;;30.75;55.30;101364.56;5090971;27;65652;-36
2022/01/12 04:25:22;;;;;;;5.97;5.50;;;;;;;30.72;55.21;101338.72;5091080;27;66166;-37
2022/01/12 04:27:53;;;;;;;5.32;4.93;;;;;;;30.78;55.31;101342.47;5086896;27;70496;-37
2022/01/12 04:30:23;;;;;;;5.80;5.30;;;;;;;30.85;55.39;101348.78;5091599;27;65322;-37
2022/01/12 04:32:53;;;;;;;6.63;5.20;;;;;;;30.85;55.14;101341.47;5087886;27;69949;-37
2022/01/12 04:35:29;;;;;;;5.93;5.28;;;;;;;30.88;54.96;101340.22;5087265;27;66495;-37
2022/01/12 04:38:00;;;;;;;5.63;5.18;;;;;;;30.92;55.16;101345.03;5094996;27;70656;-37
2022/01/12 04:40:31;;;;;;;5.78;5.25;;;;;;;30.93;55.05;101338.56;5082759;27;67880;-37
2022/01/12 04:43:02;;;;;;;5.22;4.93;;;;;;;30.97;54.89;101336.25;5089706;27;69522;-36
2022/01/12 04:45:40;;;;;;;5.90;5.30;;;;;;;31.00;54.91;101327.69;5072455;27;66272;-36
2022/01/12 04:50:47;;;;;;;6.07;5.55;;;;;;;31.03;55.02;101318.31;5088937;27;66416;-37
2022/01/12 04:53:19;;;;;;;5.97;5.43;;;;;;;31.06;55.09;101312.47;5087352;27;70813;-37
2022/01/12 04:55:51;;;;;;;7.75;5.03;;;;;;;31.07;54.64;101303.31;5087922;27;66799;-38
2022/01/12 04:58:22;;;;;;;7.03;5.97;;;;;;;31.10;54.55;101303.72;5081203;27;70287;-37
2022/01/12 05:00:53;;;;;;;5.57;5.18;;;;;;;31.14;54.08;101299.53;5087032;27;66538;-37
2022/01/12 05:09:09;;;;;;;7.57;5.63;;;;;;;31.19;54.05;101284.53;5084399;27;69855;-37
2022/01/12 05:14:38;;;;;;;6.32;5.88;;;;;;;31.23;54.28;101280.31;5083308;27;69868;-37
2022/01/12 05:17:09;;;;;;;7.28;5.32;;;;;;;31.26;54.46;101283.47;5082540;27;66134;-37
2022/01/12 05:19:40;;;;;;;5.72;5.30;;;;;;;31.29;54.06;101271.38;5070832;28;70753;-38
2022/01/12 05:22:11;;;;;;;6.72;6.18;;;;;;;31.31;54.07;101271.97;5085787;27;66375;-38
2022/01/12 05:24:42;;;;;;;6.55;5.95;;;;;;;31.30;54.03;101259.47;5086149;27;70878;-36
2022/01/12 05:27:29;;;;;;;6.65;6.25;;;;;;;31.25;54.30;101245.72;5076604;27;66384;-36
2022/01/12 05:29:59;;;;;;;6.55;5.57;;;;;;;31.35;54.08;101265.09;5068456;27;69898;-37
2022/01/12 05:32:30;;;;;;;7.50;6.00;;;;;;;31.35;53.92;101259.66;5083686;27;66349;-37
2022/01/12 05:35:05;;;;;;;6.70;6.20;;;;;;;31.35;54.34;101252.34;5081809;27;71005;-37
2022/01/12 05:37:35;;;;;;;8.90;6.68;;;;;;;31.31;54.26;101231.31;5083086;27;65259;-38
2022/01/12 05:40:07;;;;;;;6.90;6.40;;;;;;;31.35;54.36;101224.44;5083607;27;69525;-38
2022/01/12 05:42:40;;;;;;;8.00;6.25;;;;;;;31.33;54.53;101221.09;5082116;27;65352;-37
2022/01/12 05:45:11;;;;;;;7.13;6.47;;;;;;;31.35;54.85;101229.84;5078770;27;69008;-37
2022/01/12 05:50:18;;;;;;;7.28;6.68;;;;;;;31.38;54.65;101222.13;5084818;27;70108;-37
2022/01/12 05:52:49;;;;;;;6.72;6.20;;;;;;;31.39;54.33;101203.97;5098095;27;66088;-37
2022/01/12 05:55:20;;;;;;;6.57;5.93;;;;;;;31.29;54.64;101182.75;5067829;27;71431;-36
2022/01/12 05:57:51;;;;;;;7.50;6.17;;;;;;;31.41;54.32;101201.91;5083421;27;66217;-36
2022/01/12 06:00:23;;;;;;;6.57;6.03;;;;;;;31.43;54.27;101198.97;5092421;27;69180;-36
2022/01/12 06:02:58;;;;;;;8.95;5.82;;;;;;;31.38;54.35;101184.19;5083408;27;66531;-36
2022/01/12 06:05:29;;;;;;;6.82;6.35;;;;;;;31.43;54.30;101177.28;5068995;27;70418;-38
2022/01/12 06:08:01;;;;;;;6.67;6.13;;;;;;;31.41;54.31;101173.97;5084123;27;66540;-36
2022/01/12 06:10:31;;;;;;;6.63;6.00;;;;;;;31.48;54.39;101181.03;5084005;27;69142;-38
2022/01/12 06:13:02;;;;;;;6.75;6.25;;;;;;;31.47;53.99;101165.78;5080716;27;66990;-37
2022/01/12 06:15:32;;;;;;;6.40;5.90;;;;;;;31.51;54.17;101169.75;5086010;27;70592;-36
2022/01/12 06:18:03;;;;;;;7.20;6.47;;;;;;;31.53;54.04;101166.78;5078824;27;66578;-36
2022/01/12 06:20:33;;;;;;;7.38;6.55;;;;;;;31.36;54.44;101121.22;5081973;27;69958;-36
2022/01/12 06:23:04;;;;;;;6.07;5.68;;;;;;;31.57;53.99;101152.59;5094171;27;66249;-36
2022/01/12 06:25:36;;;;;;;7.22;6.63;;;;;;;31.58;53.85;101148.81;5090563;27;70576;-37
2022/01/12 06:28:37;;;;;;;6.55;6.03;;;;;;;31.58;54.24;101143.38;5084660;27;66271;-37
2022/01/12 06:31:10;;;;;;;7.05;6.50;;;;;;;31.60;54.09;101141.31;5070524;27;70206;-37
2022/01/12 06:33:47;;;;;;;7.93;7.22;;;;;;;31.59;53.63;101145.06;5090669;27;65169;-37
2022/01/12 06:36:20;;;;;;;8.25;7.30;;;;;;;31.63;53.56;101128.38;5071303;28;70565;-37
2022/01/12 06:38:51;;;;;;;7.85;7.25;;;;;;;31.61;53.50;101125.84;5083109;27;66448;-38
2022/01/12 06:41:21;;;;;;;7.60;6.93;;;;;;;31.64;53.80;101119.16;5081886;27;70569;-37
2022/01/12 06:43:54;;;;;;;8.38;7.43;;;;;;;31.63;53.89;101112.91;5080648;27;66071;-36
2022/01/12 06:46:29;;;;;;;7.47;6.88;;;;;;;31.64;53.88;101108.31;5092393;27;70489;-37
2022/01/12 06:49:00;;;;;;;8.02;7.28;;;;;;;31.63;53.88;101112.91;5084985;27;65511;-37
2022/01/12 06:51:31;;;;;;;7.72;7.03;;;;;;;31.65;53.94;101116.25;5087063;27;69204;-36
2022/01/12 06:54:04;;;;;;;7.38;6.88;;;;;;;31.66;53.77;101114.34;5084913;27;65474;-37
2022/01/12 06:56:35;;;;;;;9.68;7.40;;;;;;;31.68;53.62;101104.09;5086421;27;69368;-37
2022/01/12 06:59:07;;;;;;;8.07;7.50;;;;;;;31.67;53.54;101107.88;5060367;28;65627;-37
2022/01/12 07:01:40;;;;;;;8.85;8.05;;;;;;;31.60;53.84;101087.06;5090686;27;69613;-38
2022/01/12 07:04:13;;;;;;;11.60;7.60;;;;;;;31.61;53.39;101088.72;5067312;28;66130;-37
2022/01/12 07:06:43;;;;;;;7.90;7.30;;;;;;;31.69;53.65;101089.50;5086862;27;69293;-37
2022/01/12 07:09:19;;;;;;;7.75;7.15;;;;;;;31.70;53.66;101093.88;5082554;27;66474;-37
2022/01/12 07:12:04;;;;;;;8.60;7.25;;;;;;;31.71;53.44;101084.69;5081394;27;70396;-37
2022/01/12 07:14:39;;;;;;;8.80;8.05;;;;;;;31.66;53.16;101073.69;5084158;27;65687;-36
2022/01/12 07:17:12;;;;;;;8.85;8.02;;;;;;;31.66;53.60;101069.09;5086293;27;70606;-37
2022/01/12 07:19:43;;;;;;;8.13;7.38;;;;;;;31.72;53.21;101078.22;5078993;27;66634;-37
2022/01/12 07:22:14;;;;;;;8.00;7.22;;;;;;;31.71;53.61;101071.13;5088303;27;70921;-38
2022/01/12 07:24:45;;;;;;;8.73;7.97;;;;;;;31.74;53.16;101081.53;5086469;27;66332;-37
2022/01/12 07:27:19;;;;;;;8.48;7.78;;;;;;;31.74;53.24;101076.13;5088349;27;70463;-36
2022/01/12 07:29:49;;;;;;;9.25;8.40;;;;;;;31.75;53.54;101066.91;5084703;27;66272;-37
2022/01/12 07:32:20;;;;;;;8.77;8.15;;;;;;;31.75;53.76;101058.78;5097650;27;70535;-37
2022/01/12 07:34:50;;;;;;;9.57;8.88;;;;;;;31.70;53.42;101053.19;5072427;27;66403;-37
2022/01/12 07:37:22;;;;;;;8.45;7.75;;;;;;;31.75;53.09;101061.50;5083151;27;71301;-37
2022/01/12 07:39:52;;;;;;;13.13;8.52;;;;;;;31.75;53.57;101056.91;5086785;27;66149;-37
2022/01/12 07:42:23;;;;;;;9.73;8.82;;;;;;;31.78;53.53;101064.59;5092313;27;69977;-36
2022/01/12 07:45:00;;;;;;;9.30;8.60;;;;;;;31.76;53.59;101058.56;5092095;27;66180;-39
2022/01/12 07:47:31;;;;;;;8.98;8.38;;;;;;;31.79;53.34;101057.31;5091708;27;69956;-37
2022/01/12 07:50:04;;;;;;;9.07;8.45;;;;;;;31.71;53.22;101044.84;5091119;27;65403;-37
2022/01/12 07:52:35;;;;;;;12.55;9.30;;;;;;;31.79;53.45;101051.88;5089681;27;70436;-37
2022/01/12 07:55:06;;;;;;;10.25;9.32;;;;;;;31.80;53.25;101048.09;5082533;27;65570;-37
2022/01/12 07:57:38;;;;;;;9.93;9.05;;;;;;;31.79;53.39;101043.75;5087158;27;70578;-37
2022/01/12 08:00:09;;;;;;;9.43;8.63;;;;;;;31.80;53.28;101050.81;5099026;27;64810;-37
2022/01/12 08:02:39;;;;;;;10.20;9.20;;;;;;;31.83;52.77;101040.34;5084477;27;70072;-37
2022/01/12 08:05:11;;;;;;;10.50;9.55;;;;;;;31.81;53.01;101039.72;5087874;27;65962;-37
2022/01/12 08:07:41;;;;;;;10.88;9.80;;;;;;;31.84;53.04;101049.31;5082088;27;70215;-37
2022/01/12 08:10:13;;;;;;;12.05;9.40;;;;;;;31.89;52.97;101049.47;5086602;27;66411;-37
2022/01/12 08:12:44;;;;;;;10.73;9.85;;;;;;;31.78;53.20;101028.50;5071757;27;69863;-36
2022/01/12 08:15:15;;;;;;;10.85;10.00;;;;;;;31.92;52.97;101049.06;5080839;27;66058;-37
2022/01/12 08:17:45;;;;;;;10.57;9.52;;;;;;;31.90;53.01;101043.00;5076652;27;70771;-36
2022/01/12 08:20:21;;;;;;;10.73;9.68;;;;;;;31.93;52.87;101048.00;5080727;27;65850;-37
2022/01/12 08:22:51;;;;;;;11.85;10.55;;;;;;;31.84;52.89;101016.75;5089714;27;69976;-37
2022/01/12 08:25:22;;;;;;;10.70;9.70;;;;;;;31.98;52.82;101036.47;5087939;27;65346;-43
2022/01/12 08:27:52;;;;;;;11.93;10.90;;;;;;;32.00;52.85;101037.09;5083018;27;70136;-37
2022/01/12 08:30:28;;;;;;;11.13;10.15;;;;;;;31.99;52.81;101044.41;5090608;27;66493;-37
2022/01/12 08:32:59;;;;;;;11.73;10.60;;;;;;;32.02;52.59;101051.25;5091367;27;70056;-36
2022/01/12 08:35:29;;;;;;;11.70;10.82;;;;;;;32.02;52.65;101046.66;5085061;27;65554;-36
2022/01/12 08:38:00;;;;;;;11.80;10.73;;;;;;;32.06;52.54;101052.47;5079157;27;69904;-37
2022/01/12 08:40:30;;;;;;;15.80;12.02;;;;;;;32.07;52.70;101050.56;5086269;27;65583;-37
2022/01/12 08:43:01;;;;;;;13.65;11.57;;;;;;;32.08;52.35;101046.81;5082201;27;70446;-37
2022/01/12 08:45:31;;;;;;;11.73;10.82;;;;;;;32.08;52.72;101047.66;5084147;27;66910;-37
2022/01/12 08:48:01;;;;;;;13.02;10.45;;;;;;;32.09;52.37;101045.75;5087807;27;69427;-37
2022/01/12 08:50:31;;;;;;;14.50;11.75;;;;;;;32.05;52.65;101046.22;5085352;27;65526;-38
2022/01/12 08:53:02;;;;;;;12.93;11.93;;;;;;;32.09;52.29;101045.75;5085516;27;69372;-38
2022/01/12 08:55:32;;;;;;;13.63;11.73;;;;;;;32.10;52.22;101050.97;5084605;27;66196;-38
2022/01/12 08:58:03;;;;;;;16.70;12.52;;;;;;;32.12;52.16;101051.56;5098905;27;70240;-37
2022/01/12 09:00:34;;;;;;;14.55;12.95;;;;;;;32.08;52.19;101046.81;5087862;27;66233;-36
2022/01/12 09:03:05;;;;;;;16.40;12.73;;;;;;;32.13;52.09;101049.69;5088268;27;70420;-36
2022/01/12 09:05:36;;;;;;;19.42;13.93;;;;;;;32.11;52.37;101049.09;5087854;27;66085;-37
2022/01/12 09:08:07;;;;;;;14.23;12.80;;;;;;;32.08;51.85;101038.69;5084488;27;69599;-37
2022/01/12 09:10:37;;;;;;;16.35;13.85;;;;;;;32.13;51.70;101052.41;5084530;27;66327;-37
2022/01/12 09:13:07;;;;;;;15.80;13.52;;;;;;;32.08;51.74;101044.09;5088687;27;70066;-38
2022/01/12 09:15:37;;;;;;;16.33;13.55;;;;;;;32.14;51.52;101051.34;5081862;27;65431;-36
2022/01/12 09:18:08;;;;;;;16.95;13.50;;;;;;;32.15;51.87;101055.72;5089029;27;69893;-37
2022/01/12 09:20:38;;;;;;;16.25;13.52;;;;;;;32.15;52.09;101063.84;5094080;27;65311;-37
2022/01/12 09:23:08;;;;;;;19.33;13.90;;;;;;;32.14;51.74;101054.06;5085587;27;70579;-37
2022/01/12 09:25:41;;;;;;;18.20;14.35;;;;;;;32.09;51.37;101049.28;5092080;27;65225;-37
2022/01/12 09:28:11;;;;;;;20.00;13.93;;;;;;;32.15;51.62;101055.72;5085259;27;70485;-37
2022/01/12 09:30:42;;;;;;;14.93;13.40;;;;;;;32.16;51.34;101063.63;5090586;27;65940;-37
2022/01/12 09:33:12;;;;;;;15.10;13.73;;;;;;;32.14;51.89;101062.19;5095563;27;69955;-38
2022/01/12 09:35:45;;;;;;;17.70;13.15;;;;;;;32.16;51.77;101079.09;5086513;27;65915;-38
2022/01/12 09:38:18;;;;;;;20.25;13.77;;;;;;;32.09;51.42;101060.16;5081681;27;70200;-39
2022/01/12 09:40:57;;;;;;;21.90;14.55;;;;;;;31.95;51.51;101035.03;5083350;27;66559;-37
2022/01/12 09:43:35;;;;;;;18.02;14.70;;;;;;;32.16;51.57;101071.78;5087060;27;70309;-38
2022/01/12 09:46:09;;;;;;;19.73;14.45;;;;;;;31.93;51.39;101030.88;5094450;27;66689;-39
2022/01/12 09:48:43;;;;;;;17.88;14.55;;;;;;;32.17;51.49;101069.88;5085393;27;69062;-36
2022/01/12 09:51:13;;;;;;;18.70;14.93;;;;;;;32.17;51.55;101075.31;5084518;27;65403;-37
2022/01/12 09:53:44;;;;;;;16.33;14.25;;;;;;;32.17;51.78;101075.31;5089089;27;70315;-37
2022/01/12 09:56:26;;;;;;;15.45;13.88;;;;;;;32.17;51.15;101075.31;5085501;27;65943;-37
2022/01/12 09:59:02;;;;;;;16.90;14.32;;;;;;;32.16;51.74;101082.63;5094603;27;69394;-38
2022/01/12 10:01:36;;;;;;;18.77;13.70;;;;;;;32.17;51.50;101080.75;5088557;27;66908;-36
2022/01/12 10:04:20;;;;;;;23.90;14.10;;;;;;;32.16;51.83;101088.06;5082902;27;70134;-41
2022/01/12 10:06:54;;;;;;;16.13;13.95;;;;;;;31.70;51.63;101012.50;5083461;27;65576;-36
2022/01/12 10:09:45;;;;;;;19.95;15.15;;;;;;;32.08;51.06;101092.97;5081647;27;69794;-37
2022/01/12 10:12:27;;;;;;;16.67;13.82;;;;;;;32.15;51.57;101100.00;5083968;27;65990;-36
2022/01/12 10:15:14;;;;;;;16.25;14.57;;;;;;;32.15;51.06;101099.13;5077593;27;70459;-38
2022/01/12 10:17:47;;;;;;;14.73;13.35;;;;;;;32.13;51.65;101099.38;5085157;27;66033;-38
2022/01/12 10:20:22;;;;;;;21.15;14.60;;;;;;;32.14;51.23;101097.47;5089363;27;69885;-38
2022/01/12 10:23:06;;;;;;;23.05;15.07;;;;;;;32.15;51.44;101099.13;5085402;27;66320;-36
2022/01/12 10:25:37;;;;;;;17.92;13.88;;;;;;;32.13;51.50;101101.25;5088581;27;70032;-37
2022/01/12 10:28:15;;;;;;;16.15;14.48;;;;;;;31.91;51.07;101076.38;5081895;27;65410;-38
2022/01/12 10:30:55;;;;;;;19.50;14.35;;;;;;;32.10;51.05;101102.53;5086723;27;69985;-37
2022/01/12 10:33:35;;;;;;;14.43;13.20;;;;;;;31.91;51.60;101071.81;5082666;27;66645;-37
2022/01/12 10:36:06;;;;;;;15.93;14.32;;;;;;;32.12;51.17;101115.88;5082289;27;70519;-37
2022/01/12 10:38:36;;;;;;;24.65;15.35;;;;;;;32.11;51.70;101119.63;5081100;27;66047;-37
2022/01/12 10:41:10;;;;;;;16.45;14.15;;;;;;;32.09;51.59;101110.88;5064741;27;69879;-37
2022/01/12 10:43:42;;;;;;;19.27;14.93;;;;;;;32.10;51.92;101123.41;5087608;27;66484;-37
2022/01/12 10:46:18;;;;;;;16.20;14.15;;;;;;;32.01;51.67;101115.56;5091097;27;69012;-38
2022/01/12 10:48:52;;;;;;;20.67;14.63;;;;;;;32.04;51.62;101125.97;5087027;27;65435;-38
2022/01/12 10:51:28;;;;;;;19.67;14.27;;;;;;;32.07;51.64;101135.56;5093723;27;69952;-39
2022/01/12 10:54:01;;;;;;;21.58;12.35;;;;;;;31.85;52.75;101094.38;5070799;27;66032;-39
2022/01/12 10:56:32;;;;;;;17.17;12.38;;;;;;;32.05;52.90;101140.34;5094995;27;69970;-38
2022/01/12 10:59:02;;;;;;;26.58;12.85;;;;;;;32.03;52.90;101145.16;5091049;27;65580;-40
2022/01/12 11:01:33;;;;;;;18.33;13.05;;;;;;;32.08;53.10;101147.22;5090281;27;69116;-39
2022/01/12 11:04:04;;;;;;;16.58;12.20;;;;;;;32.05;53.05;101146.63;5088702;27;66636;-40
2022/01/12 11:06:35;;;;;;;19.00;12.37;;;;;;;32.07;53.69;101145.53;5090091;27;69913;-38
2022/01/12 11:09:06;;;;;;;15.13;12.23;;;;;;;32.08;53.18;101147.22;5085221;27;66973;-39
2022/01/12 11:11:37;;;;;;;15.85;11.57;;;;;;;32.07;53.45;101156.41;5091611;27;70606;-40
2022/01/12 11:14:07;;;;;;;21.38;12.40;;;;;;;32.07;53.36;101162.69;5089317;27;67108;-39
2022/01/12 11:16:38;;;;;;;21.90;12.98;;;;;;;32.07;53.65;101162.69;5083180;27;70371;-38
2022/01/12 11:19:09;;;;;;;20.15;12.63;;;;;;;32.07;53.79;101164.53;5086779;27;66596;-38
2022/01/12 11:21:57;;;;;;;31.65;13.00;;;;;;;31.79;53.77;101127.81;5090063;27;70944;-39
2022/01/12 11:24:28;;;;;;;12.80;11.60;;;;;;;32.05;53.89;101168.31;5089444;27;66649;-40
2022/01/12 11:27:03;;;;;;;14.27;11.75;;;;;;;32.08;54.06;101174.38;5087425;27;69675;-38
2022/01/12 11:29:34;;;;;;;19.35;12.18;;;;;;;32.08;54.10;101168.94;5085872;27;66337;-39
2022/01/12 11:32:12;;;;;;;20.70;11.98;;;;;;;32.03;54.21;101178.56;5084646;27;71367;-39
2022/01/12 11:34:42;;;;;;;20.38;12.63;;;;;;;31.98;54.95;101170.28;5087295;27;66440;-38
2022/01/12 11:37:17;;;;;;;20.40;11.88;;;;;;;31.92;54.90;101154.84;5088426;27;69704;-38
2022/01/12 11:40:05;;;;;;;17.92;12.30;;;;;;;32.10;55.10;101188.56;5087769;27;65464;-40
2022/01/12 11:42:36;;;;;;;17.45;12.02;;;;;;;32.09;55.26;101186.88;5091258;27;69177;-38
2022/01/12 11:45:18;;;;;;;12.10;10.30;;;;;;;32.07;55.34;101188.97;5088168;27;66221;-38
2022/01/12 11:47:48;;;;;;;26.50;11.80;;;;;;;32.04;55.34;101191.09;5091977;27;68706;-39
2022/01/12 11:50:19;;;;;;;16.85;10.95;;;;;;;32.07;55.35;101195.25;5084409;27;66358;-39
2022/01/12 11:52:49;;;;;;;23.48;11.13;;;;;;;32.01;55.11;101186.13;5085766;27;68983;-39
2022/01/12 11:55:20;;;;;;;12.25;10.50;;;;;;;32.05;55.07;101192.75;5086832;27;65939;-38
2022/01/12 11:57:54;;;;;;;18.80;11.38;;;;;;;32.05;55.66;101206.31;5089122;27;69988;-38
2022/01/12 12:00:30;;;;;;;16.27;10.75;;;;;;;32.02;55.33;101193.19;5077815;27;66732;-39
2022/01/12 12:03:15;;;;;;;19.38;11.07;;;;;;;31.99;55.28;101209.09;5084536;27;70340;-40
2022/01/12 12:05:48;;;;;;;15.98;10.88;;;;;;;31.97;55.13;101205.75;5084397;27;65973;-39
2022/01/12 12:08:25;;;;;;;18.83;11.45;;;;;;;31.92;55.81;101213.72;5083170;27;69984;-39
2022/01/12 12:10:55;;;;;;;18.25;11.57;;;;;;;31.98;55.17;101219.13;5085213;27;66238;-39
2022/01/12 12:13:28;;;;;;;23.20;11.85;;;;;;;31.96;55.36;101215.78;5082026;27;70111;-39
2022/01/12 12:16:01;;;;;;;21.67;12.52;;;;;;;31.99;55.38;101228.09;5079108;27;66145;-39
2022/01/12 12:18:36;;;;;;;22.10;11.98;;;;;;;31.95;55.66;101233.09;5080478;27;70298;-37
2022/01/12 12:21:07;;;;;;;;;;;;;;;31.59;56.50;101226.44;5079313;27;66591;-37
2022/01/12 12:23:38;;;;;;;17.00;11.70;;;;;;;31.85;55.78;101240.88;5085474;27;70413;-39
2022/01/12 12:26:13;;;;;;;18.85;11.30;;;;;;;31.79;55.82;101236.31;5088480;27;66490;-37
2022/01/12 12:28:53;;;;;;;23.63;11.48;;;;;;;31.74;55.56;101252.41;5083420;27;70358;-37
2022/01/12 12:31:30;;;;;;;27.27;11.75;;;;;;;31.61;55.81;101256.84;5080791;27;66515;-39
2022/01/12 12:34:25;;;;;;;23.35;11.30;;;;;;;31.55;55.39;101263.13;5080998;27;70719;-38
2022/01/12 12:37:00;;;;;;;25.33;11.73;;;;;;;31.29;55.36;101231.53;5081128;27;66117;-38
2022/01/12 12:39:35;;;;;;;20.80;11.32;;;;;;;31.13;55.76;101216.56;5087376;27;69541;-37
2022/01/12 12:42:15;;;;;;;20.25;12.02;;;;;;;31.37;55.56;101268.41;5084934;27;66561;-39
2022/01/12 12:44:48;;;;;;;27.40;11.93;;;;;;;31.10;56.01;101241.41;5078683;27;69720;-39
2022/01/12 12:47:21;;;;;;;45.80;12.95;;;;;;;31.23;55.80;101264.94;5066993;27;65649;-37
2022/01/12 12:49:58;;;;;;;27.00;12.25;;;;;;;31.24;55.95;101271.16;5093335;27;70172;-38
2022/01/12 12:52:35;;;;;;;20.23;12.13;;;;;;;30.85;55.76;101229.59;5048819;27;65934;-38
2022/01/12 12:55:14;;;;;;;21.15;12.15;;;;;;;30.90;55.48;101244.16;5093546;27;70413;-39
2022/01/12 12:57:49;;;;;;;30.58;13.23;;;;;;;31.12;56.29;101285.38;5079749;27;65768;-44
2022/01/12 13:00:27;;;;;;;32.22;12.68;;;;;;;31.10;55.80;101287.47;5084997;27;69885;-39
2022/01/12 13:03:10;;;;;;;27.83;12.02;;;;;;;31.10;55.53;101298.31;5067465;27;66570;-39
2022/01/12 13:05:47;;;;;;;37.92;12.48;;;;;;;31.03;55.16;101289.34;5088756;27;69813;-39
2022/01/12 13:08:22;;;;;;;27.67;11.30;;;;;;;30.92;54.73;101280.00;5082008;27;65708;-38
2022/01/12 13:10:56;;;;;;;38.25;11.13;;;;;;;30.98;54.47;101300.00;5072514;27;69606;-38